Time,TemperatureF,DewpointF,PressureIn,WindDirection,WindDirectionDegrees,WindSpeedMPH,WindSpeedGustMPH,Humidity,HourlyPrecipIn,Conditions,Clouds,dailyrainin,SolarRadiationWatts/m^2,SoftwareType,DateUTC
2013-04-09 00:12:00,38.0,16.0,-100.00,North,355,17.0,28.0,41,0.00,,,0.00,0.000000,,2013-04-09 07:12:00,
2013-04-09 00:22:00,38.0,16.0,-100.00,North,355,17.0,28.0,41,0.00,,,0.00,0.000000,,2013-04-09 07:22:00,
2013-04-09 00:32:00,38.0,16.0,-100.00,North,355,17.0,28.0,41,0.00,,,0.00,0.000000,,2013-04-09 07:32:00,
2013-04-09 00:42:00,38.0,16.0,-100.00,North,355,17.0,28.0,41,0.00,,,0.00,0.000000,,2013-04-09 07:42:00,
2013-04-09 01:12:00,36.0,14.0,-100.00,North,351,16.0,26.0,40,0.00,,,0.00,0.000000,,2013-04-09 08:12:00,
2013-04-09 01:22:00,36.0,14.0,-100.00,North,351,16.0,26.0,40,0.00,,,0.00,0.000000,,2013-04-09 08:22:00,
2013-04-09 01:32:00,36.0,14.0,-100.00,North,351,16.0,26.0,40,0.00,,,0.00,0.000000,,2013-04-09 08:32:00,
2013-04-09 02:12:00,34.0,15.0,-100.00,NNW,343,11.0,22.0,46,0.00,,,0.00,0.000000,,2013-04-09 09:12:00,
2013-04-09 02:22:00,34.0,15.0,-100.00,NNW,343,11.0,22.0,46,0.00,,,0.00,0.000000,,2013-04-09 09:22:00,
2013-04-09 02:32:00,34.0,15.0,-100.00,NNW,343,11.0,22.0,46,0.00,,,0.00,0.000000,,2013-04-09 09:32:00,
2013-04-09 02:43:00,34.0,15.0,-100.00,NNW,343,11.0,22.0,46,0.00,,,0.00,0.000000,,2013-04-09 09:43:00,
2013-04-09 03:12:00,34.0,16.0,-100.00,NNW,341,12.0,20.0,48,0.00,,,0.00,0.000000,,2013-04-09 10:12:00,
2013-04-09 03:23:00,34.0,16.0,-100.00,NNW,341,12.0,20.0,48,0.00,,,0.00,0.000000,,2013-04-09 10:23:00,
2013-04-09 03:32:00,34.0,16.0,-100.00,NNW,341,12.0,20.0,48,0.00,,,0.00,0.000000,,2013-04-09 10:32:00,
2013-04-09 03:42:00,34.0,16.0,-100.00,NNW,341,12.0,20.0,48,0.00,,,0.00,0.000000,,2013-04-09 10:42:00,
2013-04-09 04:12:00,33.0,19.0,-100.00,WNW,298,9.0,20.0,56,0.00,,,0.00,0.000000,,2013-04-09 11:12:00,
2013-04-09 04:22:00,33.0,19.0,-100.00,WNW,298,9.0,20.0,56,0.00,,,0.00,0.000000,,2013-04-09 11:22:00,
2013-04-09 04:32:00,33.0,19.0,-100.00,WNW,298,9.0,20.0,56,0.00,,,0.00,0.000000,,2013-04-09 11:32:00,
2013-04-09 04:42:00,33.0,19.0,-100.00,WNW,298,9.0,20.0,56,0.00,,,0.00,0.000000,,2013-04-09 11:42:00,
2013-04-09 05:12:00,32.0,18.0,-100.00,NNW,337,9.0,14.0,56,0.00,,,0.00,0.000000,,2013-04-09 12:12:00,
2013-04-09 05:22:00,32.0,18.0,-100.00,NNW,337,9.0,14.0,56,0.00,,,0.00,0.000000,,2013-04-09 12:22:00,
2013-04-09 05:32:00,32.0,18.0,-100.00,NNW,337,9.0,14.0,56,0.00,,,0.00,0.000000,,2013-04-09 12:32:00,
2013-04-09 05:42:00,32.0,18.0,-100.00,NNW,337,9.0,14.0,56,0.00,,,0.00,0.000000,,2013-04-09 12:42:00,
2013-04-09 06:12:00,28.0,19.0,-100.00,WSW,251,2.0,13.0,69,0.00,,,0.00,0.000000,,2013-04-09 13:12:00,
2013-04-09 06:22:00,28.0,19.0,-100.00,WSW,251,2.0,13.0,69,0.00,,,0.00,0.000000,,2013-04-09 13:22:00,
2013-04-09 06:32:00,28.0,19.0,-100.00,WSW,251,2.0,13.0,69,0.00,,,0.00,0.000000,,2013-04-09 13:32:00,
2013-04-09 06:42:00,28.0,19.0,-100.00,WSW,251,2.0,13.0,69,0.00,,,0.00,0.000000,,2013-04-09 13:42:00,
2013-04-09 07:12:00,31.0,19.0,-100.00,NW,305,5.0,10.0,61,0.00,,,0.00,4.000000,,2013-04-09 14:12:00,
2013-04-09 07:22:00,31.0,19.0,-100.00,NW,305,5.0,10.0,61,0.00,,,0.00,4.000000,,2013-04-09 14:22:00,
2013-04-09 07:32:00,31.0,19.0,-100.00,NW,305,5.0,10.0,61,0.00,,,0.00,4.000000,,2013-04-09 14:32:00,
2013-04-09 07:42:00,31.0,19.0,-100.00,NW,305,5.0,10.0,61,0.00,,,0.00,4.000000,,2013-04-09 14:42:00,
2013-04-09 08:12:00,37.0,20.0,-100.00,NNW,328,10.0,13.0,50,0.00,,,0.00,120.000000,,2013-04-09 15:12:00,
2013-04-09 08:22:00,37.0,20.0,-100.00,NNW,328,10.0,13.0,50,0.00,,,0.00,120.000000,,2013-04-09 15:22:00,
2013-04-09 08:33:00,37.0,20.0,-100.00,NNW,328,10.0,13.0,50,0.00,,,0.00,120.000000,,2013-04-09 15:33:00,
2013-04-09 08:42:00,37.0,20.0,-100.00,NNW,328,10.0,13.0,50,0.00,,,0.00,120.000000,,2013-04-09 15:42:00,
2013-04-09 09:13:00,41.0,20.0,-100.00,NW,325,9.0,16.0,42,0.00,,,0.00,386.000000,,2013-04-09 16:13:00,
2013-04-09 09:23:00,41.0,20.0,-100.00,NW,325,9.0,16.0,42,0.00,,,0.00,386.000000,,2013-04-09 16:23:00,
2013-04-09 09:33:00,41.0,20.0,-100.00,NW,325,9.0,16.0,42,0.00,,,0.00,386.000000,,2013-04-09 16:33:00,
2013-04-09 09:42:00,41.0,20.0,-100.00,NW,325,9.0,16.0,42,0.00,,,0.00,386.000000,,2013-04-09 16:42:00,
2013-04-09 10:12:00,42.0,17.0,-100.00,NNW,346,12.0,21.0,36,0.00,,,0.00,663.000000,,2013-04-09 17:12:00,
2013-04-09 10:22:00,42.0,17.0,-100.00,NNW,346,12.0,21.0,36,0.00,,,0.00,663.000000,,2013-04-09 17:22:00,
2013-04-09 10:32:00,42.0,17.0,-100.00,NNW,346,12.0,21.0,36,0.00,,,0.00,663.000000,,2013-04-09 17:32:00,
2013-04-09 10:42:00,42.0,17.0,-100.00,NNW,346,12.0,21.0,36,0.00,,,0.00,663.000000,,2013-04-09 17:42:00,
2013-04-09 11:12:00,46.0,16.0,-100.00,North,8,12.0,21.0,30,0.00,,,0.00,900.000000,,2013-04-09 18:12:00,
2013-04-09 11:22:00,46.0,16.0,-100.00,North,8,12.0,21.0,30,0.00,,,0.00,900.000000,,2013-04-09 18:22:00,
2013-04-09 11:32:00,46.0,16.0,-100.00,North,8,12.0,21.0,30,0.00,,,0.00,900.000000,,2013-04-09 18:32:00,
2013-04-09 11:42:00,46.0,16.0,-100.00,North,8,12.0,21.0,30,0.00,,,0.00,900.000000,,2013-04-09 18:42:00,
2013-04-09 12:32:00,49.0,16.0,-100.00,North,350,11.0,24.0,26,0.00,,,0.00,1102.000000,,2013-04-09 19:32:00,
2013-04-09 12:41:00,49.0,16.0,-100.00,North,350,11.0,24.0,26,0.00,,,0.00,1102.000000,,2013-04-09 19:41:00,
2013-04-09 13:12:00,49.0,13.0,-100.00,NNE,27,15.0,29.0,23,0.00,,,0.00,1187.000000,,2013-04-09 20:12:00,
2013-04-09 13:22:00,49.0,13.0,-100.00,NNE,27,15.0,29.0,23,0.00,,,0.00,1187.000000,,2013-04-09 20:22:00,
2013-04-09 13:33:00,49.0,13.0,-100.00,NNE,27,15.0,29.0,23,0.00,,,0.00,1187.000000,,2013-04-09 20:33:00,
2013-04-09 13:42:00,49.0,13.0,-100.00,NNE,27,15.0,29.0,23,0.00,,,0.00,1187.000000,,2013-04-09 20:42:00,
2013-04-09 14:13:00,52.0,13.0,-100.00,North,8,13.0,24.0,21,0.00,,,0.00,1196.000000,,2013-04-09 21:13:00,
2013-04-09 14:22:00,52.0,13.0,-100.00,North,8,13.0,24.0,21,0.00,,,0.00,1196.000000,,2013-04-09 21:22:00,
2013-04-09 14:33:00,52.0,13.0,-100.00,North,8,13.0,24.0,21,0.00,,,0.00,1196.000000,,2013-04-09 21:33:00,
2013-04-09 14:42:00,52.0,13.0,-100.00,North,8,13.0,24.0,21,0.00,,,0.00,1196.000000,,2013-04-09 21:42:00,
2013-04-09 15:12:00,55.0,14.0,-100.00,North,6,13.0,24.0,19,0.00,,,0.00,1128.000000,,2013-04-09 22:12:00,
2013-04-09 15:23:00,55.0,14.0,-100.00,North,6,13.0,24.0,19,0.00,,,0.00,1128.000000,,2013-04-09 22:23:00,
2013-04-09 15:33:00,55.0,14.0,-100.00,North,6,13.0,24.0,19,0.00,,,0.00,1128.000000,,2013-04-09 22:33:00,
2013-04-09 15:42:00,55.0,14.0,-100.00,North,6,13.0,24.0,19,0.00,,,0.00,1128.000000,,2013-04-09 22:42:00,
2013-04-09 16:12:00,55.0,11.0,-100.00,North,357,16.0,25.0,17,0.00,,,0.00,995.000000,,2013-04-09 23:12:00,
2013-04-09 18:12:00,56.0,12.0,-100.00,NNW,347,16.0,31.0,17,-99.99,,,0.00,543.000000,,2013-04-10 01:12:00,
2013-04-09 18:22:00,56.0,12.0,-100.00,NNW,347,16.0,31.0,17,-99.99,,,0.00,543.000000,,2013-04-10 01:22:00,
2013-04-09 18:32:00,56.0,12.0,-100.00,NNW,347,16.0,31.0,17,-99.99,,,0.00,543.000000,,2013-04-10 01:32:00,
2013-04-09 18:42:00,56.0,12.0,-100.00,NNW,347,16.0,31.0,17,-99.99,,,0.00,543.000000,,2013-04-10 01:42:00,
2013-04-09 19:12:00,53.0,9.0,-100.00,North,3,15.0,27.0,17,0.00,,,0.00,274.000000,,2013-04-10 02:12:00,
2013-04-09 20:12:00,50.0,9.0,-100.00,North,352,12.0,22.0,19,0.00,,,0.00,41.000000,,2013-04-10 03:12:00,
2013-04-09 20:22:00,50.0,9.0,-100.00,North,352,12.0,22.0,19,0.00,,,0.00,41.000000,,2013-04-10 03:22:00,
2013-04-09 20:43:00,50.0,9.0,-100.00,North,352,12.0,22.0,19,0.00,,,0.00,41.000000,,2013-04-10 03:43:00,
2013-04-09 21:13:00,47.0,12.0,-100.00,NW,307,5.0,18.0,24,0.00,,,0.00,0.000000,,2013-04-10 04:13:00,
2013-04-09 21:22:00,47.0,12.0,-100.00,NW,307,5.0,18.0,24,0.00,,,0.00,0.000000,,2013-04-10 04:22:00,
2013-04-09 21:33:00,47.0,12.0,-100.00,NW,307,5.0,18.0,24,0.00,,,0.00,0.000000,,2013-04-10 04:33:00,
2013-04-09 21:42:00,47.0,12.0,-100.00,NW,307,5.0,18.0,24,0.00,,,0.00,0.000000,,2013-04-10 04:42:00,
2013-04-09 22:13:00,43.0,13.0,-100.00,NW,308,6.0,11.0,29,0.00,,,0.00,0.000000,,2013-04-10 05:13:00,
2013-04-09 22:22:00,43.0,13.0,-100.00,NW,308,6.0,11.0,29,0.00,,,0.00,0.000000,,2013-04-10 05:22:00,
2013-04-09 22:32:00,43.0,13.0,-100.00,NW,308,6.0,11.0,29,0.00,,,0.00,0.000000,,2013-04-10 05:32:00,
2013-04-09 22:42:00,43.0,13.0,-100.00,NW,308,6.0,11.0,29,0.00,,,0.00,0.000000,,2013-04-10 05:42:00,
2013-04-09 23:12:00,43.0,13.0,-100.00,NNW,340,7.0,11.0,29,0.00,,,0.00,0.000000,,2013-04-10 06:12:00,
2013-04-09 23:22:00,43.0,13.0,-100.00,NNW,340,7.0,11.0,29,0.00,,,0.00,0.000000,,2013-04-10 06:22:00,
2013-04-09 23:32:00,43.0,13.0,-100.00,NNW,340,7.0,11.0,29,0.00,,,0.00,0.000000,,2013-04-10 06:32:00,
2013-04-09 23:42:00,43.0,13.0,-100.00,NNW,340,7.0,11.0,29,0.00,,,0.00,0.000000,,2013-04-10 06:42:00,